Terminal Aerodrome Forecast
Issued by NWS

Home | Current Version | Previous Version | Text Only | Print | Product List | Glossary On
Versions: 1 2 3 4 5 6 7 8 9 10 11 12 13 14 15 16 17 18 19 20 21 22 23 24 25 26 27 28 29 30 31 32 33 34 35 36 37 38 39 40 41 42
000
FTUS43 KAPX 152320
TAFMBL
TAF
KMBL 152320Z 1600/1624 05006KT P6SM BKN050
     FM160500 08004KT P6SM SCT060
     FM160800 09005KT P6SM BKN100
     FM161600 03008KT P6SM BKN070
     FM161800 32008KT P6SM BKN070=

USA.gov is the U.S. government's official web portal to all federal, state and local government web resources and services.